Time;durP1;ratioP1;P1;durP2;ratioP2;P2;SDS_P1;SDS_P2;PMS_P1;PMS_P2;Temp;Humidity;BMP_temperature;BMP_pressure;BME280_temperature;BME280_humidity;BME280_pressure;Samples;Min_cycle;Max_cycle;Signal;HPM_P1;HPM_P2
2021/11/16 00:01:41;;;;;;;12.80;5.43;;;16.60;99.90;;;;;;5115009;28;20119;-52
2021/11/16 00:04:09;;;;;;;12.27;5.00;;;16.60;99.90;;;;;;5102992;28;20556;-50
2021/11/16 00:06:37;;;;;;;10.20;5.28;;;16.60;99.90;;;;;;5104855;28;20044;-50
2021/11/16 00:09:06;;;;;;;12.18;5.22;;;16.70;99.90;;;;;;5109393;28;20039;-52
2021/11/16 00:11:34;;;;;;;14.45;5.53;;;16.60;99.90;;;;;;5113046;28;20040;-53
2021/11/16 00:14:02;;;;;;;10.07;6.03;;;16.70;99.90;;;;;;5096692;28;20577;-50
2021/11/16 00:16:30;;;;;;;10.40;5.65;;;16.70;99.90;;;;;;5111864;28;20171;-51
2021/11/16 00:19:00;;;;;;;12.60;6.32;;;16.70;99.90;;;;;;5111875;28;20142;-53
2021/11/16 00:21:29;;;;;;;14.35;6.78;;;16.70;99.90;;;;;;5108422;28;20092;-51
2021/11/16 00:23:59;;;;;;;11.05;5.57;;;16.70;99.90;;;;;;5109507;28;20093;-51
2021/11/16 00:26:27;;;;;;;8.38;4.32;;;16.80;99.90;;;;;;5113682;28;20413;-52
2021/11/16 00:28:55;;;;;;;9.27;5.75;;;16.70;99.90;;;;;;5092311;28;20038;-51
2021/11/16 00:31:23;;;;;;;11.18;5.00;;;16.70;99.90;;;;;;5113518;28;20047;-52
2021/11/16 00:33:50;;;;;;;9.63;4.72;;;16.70;99.90;;;;;;5099980;28;20036;-49
2021/11/16 00:36:18;;;;;;;7.72;4.50;;;16.70;99.90;;;;;;5092157;28;20506;-50
2021/11/16 00:38:46;;;;;;;14.38;5.55;;;16.70;99.90;;;;;;5091822;28;20509;-52
2021/11/16 00:41:13;;;;;;;9.23;5.38;;;16.70;99.90;;;;;;5109650;28;20413;-53
2021/11/16 00:43:41;;;;;;;8.95;4.70;;;16.70;99.90;;;;;;5102468;28;20036;-50
2021/11/16 00:46:09;;;;;;;7.18;5.25;;;16.70;99.90;;;;;;5102875;28;20142;-51
2021/11/16 00:48:38;;;;;;;14.73;6.22;;;16.70;99.90;;;;;;5104002;28;20110;-52
2021/11/16 00:51:07;;;;;;;12.27;7.13;;;16.70;99.90;;;;;;5107262;28;20060;-53
2021/11/16 00:53:38;;;;;;;12.73;5.63;;;16.70;99.90;;;;;;5088468;28;20502;-51
2021/11/16 00:56:07;;;;;;;11.20;5.93;;;16.70;99.90;;;;;;5114812;28;20062;-49
2021/11/16 00:58:35;;;;;;;11.32;6.07;;;16.70;99.90;;;;;;5112364;28;20114;-52
2021/11/16 01:01:04;;;;;;;12.88;6.43;;;16.70;99.90;;;;;;5112399;28;20121;-49
2021/11/16 01:03:32;;;;;;;14.50;6.18;;;16.70;99.90;;;;;;5084989;28;20048;-52
2021/11/16 01:06:00;;;;;;;7.97;4.68;;;16.70;99.90;;;;;;5109501;28;20573;-49
2021/11/16 01:08:27;;;;;;;9.43;4.78;;;16.70;99.90;;;;;;5104304;28;20113;-50
2021/11/16 01:10:56;;;;;;;11.40;5.18;;;16.70;99.90;;;;;;5110540;28;20044;-50
2021/11/16 01:13:25;;;;;;;10.75;5.68;;;16.70;99.90;;;;;;5109249;28;20051;-55
2021/11/16 01:15:54;;;;;;;13.05;5.43;;;16.80;99.90;;;;;;5112535;28;20091;-50
2021/11/16 01:18:25;;;;;;;14.77;5.90;;;16.80;99.90;;;;;;5106526;28;20040;-50
2021/11/16 01:20:52;;;;;;;10.13;5.95;;;16.80;99.90;;;;;;5109466;28;20036;-50
2021/11/16 01:23:21;;;;;;;12.07;5.80;;;16.80;99.90;;;;;;5110370;28;20044;-53
2021/11/16 01:25:49;;;;;;;9.63;4.95;;;16.80;99.90;;;;;;5108435;27;20050;-50
2021/11/16 01:28:22;;;;;;;9.27;4.45;;;16.80;99.90;;;;;;5113740;28;20050;-50
2021/11/16 01:30:53;;;;;;;8.55;4.80;;;16.80;99.90;;;;;;5113830;28;20547;-54
2021/11/16 01:33:27;;;;;;;15.45;5.93;;;16.80;99.90;;;;;;5114444;28;20039;-51
2021/11/16 01:35:56;;;;;;;9.98;5.85;;;16.80;99.90;;;;;;5114686;28;20063;-49
2021/11/16 01:38:24;;;;;;;9.10;4.93;;;16.80;99.90;;;;;;5114703;28;20039;-50
2021/11/16 01:40:52;;;;;;;7.93;4.65;;;16.80;99.90;;;;;;5114362;28;20040;-52
2021/11/16 01:43:20;;;;;;;15.23;5.25;;;16.80;99.90;;;;;;5114355;28;20039;-50
2021/11/16 01:46:00;;;;;;;;;;;16.90;99.90;;;;;;5114862;28;20052;-50
2021/11/16 01:48:29;;;;;;;12.02;5.45;;;16.90;99.90;;;;;;5106254;28;20018;-51
2021/11/16 01:50:57;;;;;;;10.20;5.35;;;16.90;99.90;;;;;;5114383;28;20390;-53
2021/11/16 01:53:25;;;;;;;7.25;4.43;;;16.90;99.90;;;;;;5114232;28;20060;-49
2021/11/16 01:55:53;;;;;;;5.78;4.35;;;16.90;99.90;;;;;;5114272;28;20505;-51
2021/11/16 01:58:21;;;;;;;7.75;5.35;;;16.90;99.90;;;;;;5114116;28;20089;-50
2021/11/16 02:00:48;;;;;;;11.35;6.43;;;16.90;99.90;;;;;;5114176;28;20058;-50
2021/11/16 02:03:16;;;;;;;9.38;4.80;;;16.90;99.90;;;;;;5114493;28;20126;-50
2021/11/16 02:05:48;;;;;;;12.00;5.38;;;16.90;99.90;;;;;;5114177;28;20063;-52
2021/11/16 02:08:17;;;;;;;8.05;4.15;;;16.90;99.90;;;;;;5113970;28;20046;-50
2021/11/16 02:10:47;;;;;;;10.27;5.47;;;16.90;99.90;;;;;;5113893;28;20050;-50
2021/11/16 02:13:20;;;;;;;10.38;4.55;;;16.90;99.90;;;;;;5113919;28;20502;-51
2021/11/16 02:15:49;;;;;;;15.43;6.00;;;16.80;99.90;;;;;;5096127;28;20047;-50
2021/11/16 02:18:17;;;;;;;11.85;6.18;;;16.80;99.90;;;;;;5114012;28;20047;-48
2021/11/16 02:20:47;;;;;;;12.00;6.47;;;16.80;99.90;;;;;;5113942;28;20043;-51
2021/11/16 02:23:15;;;;;;;13.23;5.00;;;16.70;99.90;;;;;;5113884;28;20470;-50
2021/11/16 02:25:45;;;;;;;11.38;7.10;;;16.80;99.90;;;;;;5095870;28;20040;-52
2021/11/16 02:28:15;;;;;;;14.02;7.40;;;16.70;99.90;;;;;;5095916;28;20043;-50
2021/11/16 02:30:44;;;;;;;11.48;6.60;;;16.70;99.90;;;;;;5113768;28;20051;-50
2021/11/16 02:33:13;;;;;;;7.82;5.30;;;16.70;99.90;;;;;;5113799;28;20078;-51
2021/11/16 02:35:43;;;;;;;12.43;6.93;;;16.80;99.90;;;;;;5114715;28;20074;-49
2021/11/16 02:38:10;;;;;;;12.45;6.18;;;16.80;99.90;;;;;;5117938;28;20044;-50
2021/11/16 02:40:38;;;;;;;9.93;5.40;;;16.70;99.90;;;;;;5117864;28;20046;-49
2021/11/16 02:43:06;;;;;;;10.88;5.65;;;16.70;99.90;;;;;;5099953;28;20067;-50
2021/11/16 02:45:35;;;;;;;14.65;6.45;;;16.70;99.90;;;;;;5099624;28;20048;-51
2021/11/16 02:48:11;;;;;;;10.40;6.50;;;16.70;99.90;;;;;;5117622;28;20048;-51
2021/11/16 02:50:46;;;;;;;10.32;5.15;;;16.70;99.90;;;;;;5117672;28;20043;-51
2021/11/16 02:53:14;;;;;;;10.65;6.20;;;16.70;99.90;;;;;;5117517;28;20039;-50
2021/11/16 02:55:44;;;;;;;10.00;5.38;;;16.70;99.90;;;;;;5117533;28;20493;-51
2021/11/16 02:58:13;;;;;;;19.58;7.15;;;16.70;99.90;;;;;;5099566;28;20040;-51
2021/11/16 03:00:44;;;;;;;8.95;5.05;;;16.70;99.90;;;;;;5117632;28;20075;-50
2021/11/16 03:03:12;;;;;;;10.80;4.85;;;16.70;99.90;;;;;;5099368;28;20047;-49
2021/11/16 03:05:41;;;;;;;10.65;6.50;;;16.70;99.90;;;;;;5117412;28;20106;-49
2021/11/16 03:08:22;;;;;;;11.23;5.90;;;16.70;99.90;;;;;;5099224;28;20139;-50
2021/11/16 03:10:54;;;;;;;10.38;6.75;;;16.70;99.90;;;;;;5117376;28;20032;-50
2021/11/16 03:13:24;;;;;;;10.68;5.55;;;16.70;99.90;;;;;;5117265;28;20093;-50
2021/11/16 03:15:53;;;;;;;13.27;5.93;;;16.70;99.90;;;;;;5117276;28;20070;-50
2021/11/16 03:18:21;;;;;;;19.45;6.75;;;16.70;99.90;;;;;;5117325;28;20044;-51
2021/11/16 03:20:49;;;;;;;14.50;6.95;;;16.70;99.90;;;;;;5117170;28;20454;-50
2021/11/16 03:23:22;;;;;;;10.18;5.93;;;16.70;99.90;;;;;;5117235;28;20109;-48
2021/11/16 03:25:57;;;;;;;9.32;6.00;;;16.70;99.90;;;;;;5117184;28;20398;-49
2021/11/16 03:28:29;;;;;;;11.10;5.95;;;16.70;99.90;;;;;;5116863;28;20494;-51
2021/11/16 03:31:07;;;;;;;12.75;6.05;;;16.70;99.90;;;;;;5117153;28;20032;-49
2021/11/16 03:33:36;;;;;;;9.98;5.70;;;16.70;99.90;;;;;;5117064;28;20044;-50
2021/11/16 03:36:05;;;;;;;13.85;6.55;;;16.70;99.90;;;;;;5098856;28;20039;-50
2021/11/16 03:38:33;;;;;;;10.35;6.63;;;16.70;99.90;;;;;;5116757;28;20043;-50
2021/11/16 03:41:01;;;;;;;11.68;6.63;;;16.70;99.90;;;;;;5098772;28;20047;-51
2021/11/16 03:43:29;;;;;;;12.52;7.07;;;16.70;99.90;;;;;;5098791;28;20468;-50
2021/11/16 03:45:58;;;;;;;8.88;5.47;;;16.70;99.90;;;;;;5116611;28;20044;-50
2021/11/16 03:48:27;;;;;;;10.75;5.38;;;16.70;99.90;;;;;;5116531;28;20042;-50
2021/11/16 03:50:57;;;;;;;10.50;5.85;;;16.70;99.90;;;;;;5116561;28;20039;-52
2021/11/16 03:53:26;;;;;;;17.30;6.82;;;16.70;99.90;;;;;;5116545;28;20052;-50
2021/11/16 03:55:55;;;;;;;9.90;4.82;;;16.70;99.90;;;;;;5116355;28;20078;-53
2021/11/16 03:58:25;;;;;;;12.32;5.90;;;16.70;99.90;;;;;;5116414;28;20066;-50
2021/11/16 04:00:57;;;;;;;10.10;5.22;;;16.70;99.90;;;;;;5116539;28;20043;-50
2021/11/16 04:03:27;;;;;;;9.23;6.40;;;16.70;99.90;;;;;;5116355;28;20044;-51
2021/11/16 04:05:55;;;;;;;13.18;5.93;;;16.70;99.90;;;;;;5116267;28;20036;-51
2021/11/16 04:08:23;;;;;;;14.13;6.78;;;16.70;99.90;;;;;;5116219;28;20410;-52
2021/11/16 04:10:52;;;;;;;10.05;5.57;;;16.70;99.90;;;;;;5098468;28;20071;-50
2021/11/16 04:13:19;;;;;;;9.40;6.13;;;16.70;99.90;;;;;;5116159;28;20043;-50
2021/11/16 04:15:49;;;;;;;8.48;5.55;;;16.70;99.90;;;;;;5116141;28;20448;-52
2021/11/16 04:18:18;;;;;;;10.15;6.03;;;16.70;99.90;;;;;;5116120;28;20063;-51
2021/11/16 04:20:48;;;;;;;11.70;6.18;;;16.70;99.90;;;;;;5115995;28;20043;-50
2021/11/16 04:23:17;;;;;;;11.90;6.15;;;16.70;99.90;;;;;;5116003;28;20052;-50
2021/11/16 04:25:46;;;;;;;9.63;5.22;;;16.70;99.90;;;;;;5116021;28;20036;-51
2021/11/16 04:28:15;;;;;;;9.50;4.97;;;16.70;99.90;;;;;;5115816;28;20404;-49
2021/11/16 04:30:43;;;;;;;14.63;6.53;;;16.70;99.90;;;;;;5115822;28;20036;-49
2021/11/16 04:33:13;;;;;;;11.13;6.03;;;16.70;99.90;;;;;;5115634;28;20494;-50
2021/11/16 04:35:40;;;;;;;9.68;5.25;;;16.70;99.90;;;;;;5097606;28;20043;-49
2021/11/16 04:38:10;;;;;;;10.50;6.57;;;16.70;99.90;;;;;;5115728;28;20089;-52
2021/11/16 04:40:41;;;;;;;12.18;6.85;;;16.60;99.90;;;;;;5115879;28;20039;-49
2021/11/16 04:43:14;;;;;;;13.48;7.20;;;16.60;99.90;;;;;;5098163;28;20067;-52
2021/11/16 04:45:42;;;;;;;11.68;7.28;;;16.60;99.90;;;;;;5098164;28;20039;-50
2021/11/16 05:04:27;;;;;;;11.30;6.75;;;16.60;99.90;;;;;;5115188;28;20112;-51
2021/11/16 05:06:57;;;;;;;11.80;6.15;;;16.60;99.90;;;;;;5115139;28;20044;-52
2021/11/16 05:09:24;;;;;;;13.30;5.72;;;16.50;99.90;;;;;;5115014;28;20074;-52
2021/11/16 05:11:52;;;;;;;13.73;6.47;;;16.50;99.90;;;;;;5115010;28;20036;-51
2021/11/16 05:14:20;;;;;;;11.45;6.90;;;16.50;99.90;;;;;;5114977;28;20046;-50
2021/11/16 05:16:47;;;;;;;11.88;5.85;;;16.50;99.90;;;;;;5115016;28;20043;-50
2021/11/16 05:19:15;;;;;;;14.43;7.68;;;16.50;99.90;;;;;;5114834;28;20035;-52
2021/11/16 05:21:43;;;;;;;11.57;6.22;;;16.50;99.90;;;;;;5114759;28;20139;-50
2021/11/16 05:24:11;;;;;;;12.43;5.43;;;16.50;99.90;;;;;;5114795;28;20046;-50
2021/11/16 05:26:39;;;;;;;10.25;5.38;;;16.50;99.90;;;;;;5114672;28;20051;-52
2021/11/16 05:29:06;;;;;;;11.30;6.63;;;16.40;99.90;;;;;;5079168;28;20428;-51
2021/11/16 05:31:34;;;;;;;22.85;6.25;;;16.40;99.90;;;;;;5114461;28;20051;-54
2021/11/16 05:34:01;;;;;;;11.27;6.70;;;16.40;99.90;;;;;;5114441;28;20035;-52
2021/11/16 05:36:29;;;;;;;16.63;7.28;;;16.40;99.90;;;;;;5114762;28;20040;-52
2021/11/16 05:38:57;;;;;;;14.07;6.63;;;16.50;99.90;;;;;;5114434;28;20048;-51
2021/11/16 05:41:25;;;;;;;15.38;8.07;;;16.50;99.90;;;;;;5096271;28;20402;-51
2021/11/16 05:43:53;;;;;;;12.82;6.20;;;16.50;99.90;;;;;;5114513;28;20043;-51
2021/11/16 05:46:21;;;;;;;15.10;5.70;;;16.50;99.90;;;;;;5114443;28;20038;-50
2021/11/16 05:48:50;;;;;;;9.70;5.30;;;16.60;99.90;;;;;;5114386;28;20066;-50
2021/11/16 05:51:19;;;;;;;10.75;5.43;;;16.50;99.90;;;;;;5114251;28;20482;-52
2021/11/16 05:53:52;;;;;;;14.05;6.72;;;16.60;99.90;;;;;;5114085;28;20059;-51
2021/11/16 05:56:22;;;;;;;11.52;6.13;;;16.60;99.90;;;;;;5079450;28;20390;-53
2021/11/16 05:58:56;;;;;;;8.43;4.78;;;16.70;99.90;;;;;;5114277;28;20036;-52
2021/11/16 06:01:26;;;;;;;17.45;7.15;;;16.60;99.90;;;;;;5096097;28;20109;-52
2021/11/16 06:03:54;;;;;;;13.68;6.75;;;16.60;99.90;;;;;;5114312;28;20043;-49
2021/11/16 06:06:25;;;;;;;9.98;7.25;;;16.70;99.90;;;;;;5114056;28;20053;-50
2021/11/16 06:08:56;;;;;;;14.57;5.97;;;16.70;99.90;;;;;;5114168;28;20070;-51
2021/11/16 06:11:25;;;;;;;10.93;6.82;;;16.70;99.90;;;;;;5113873;28;20123;-52
2021/11/16 06:13:54;;;;;;;13.45;6.95;;;16.80;99.90;;;;;;5095715;28;20139;-51
2021/11/16 06:16:22;;;;;;;14.07;6.65;;;16.80;99.90;;;;;;5114022;28;20401;-51
2021/11/16 06:19:03;;;;;;;9.95;6.47;;;16.80;99.90;;;;;;5114123;28;20439;-52
2021/11/16 06:21:31;;;;;;;13.63;6.55;;;16.80;99.90;;;;;;5095951;28;20579;-51
2021/11/16 06:24:00;;;;;;;16.90;8.05;;;16.80;99.90;;;;;;5114042;28;20070;-50
2021/11/16 06:26:32;;;;;;;10.88;6.95;;;16.80;99.90;;;;;;5105486;28;20048;-50
2021/11/16 06:29:03;;;;;;;11.88;7.90;;;16.80;99.90;;;;;;5114063;28;20055;-50
2021/11/16 06:31:30;;;;;;;9.90;6.10;;;16.80;99.90;;;;;;5106058;28;20401;-50
2021/11/16 06:33:59;;;;;;;13.90;7.30;;;16.80;99.90;;;;;;5095801;28;20126;-51
2021/11/16 06:36:36;;;;;;;14.15;6.85;;;16.80;99.90;;;;;;5113691;28;20050;-51
2021/11/16 06:39:12;;;;;;;13.07;7.07;;;16.80;99.90;;;;;;5113809;28;20553;-52
2021/11/16 06:41:41;;;;;;;15.02;6.60;;;16.80;99.90;;;;;;5113939;28;20075;-50
2021/11/16 06:44:11;;;;;;;14.60;6.50;;;16.80;99.90;;;;;;5113861;28;20054;-50
2021/11/16 06:46:40;;;;;;;8.73;4.93;;;16.80;99.90;;;;;;5095919;28;20163;-49
2021/11/16 06:49:10;;;;;;;10.50;5.65;;;16.80;99.90;;;;;;5113649;28;20093;-50
2021/11/16 06:51:42;;;;;;;11.75;5.82;;;16.70;99.90;;;;;;5094331;28;20531;-49
2021/11/16 06:54:14;;;;;;;10.35;5.80;;;16.60;99.90;;;;;;5095238;28;20044;-50
2021/11/16 06:56:42;;;;;;;13.32;6.57;;;16.50;99.90;;;;;;5095945;28;20054;-52
2021/11/16 06:59:10;;;;;;;15.65;7.15;;;16.20;99.90;;;;;;5113456;28;20047;-49
2021/11/16 07:01:39;;;;;;;13.10;6.25;;;16.00;99.90;;;;;;5095723;28;20490;-50
2021/11/16 07:04:09;;;;;;;8.70;4.75;;;15.80;99.90;;;;;;5113371;28;20075;-50
2021/11/16 07:06:48;;;;;;;8.07;4.85;;;15.60;99.90;;;;;;5113638;28;20390;-49
2021/11/16 07:09:18;;;;;;;9.35;4.75;;;15.50;99.90;;;;;;5113686;28;20048;-51
2021/11/16 07:11:55;;;;;;;8.35;5.32;;;15.60;99.90;;;;;;5113560;28;20040;-50
2021/11/16 07:14:36;;;;;;;10.57;5.63;;;15.60;99.90;;;;;;5113380;28;20375;-51
2021/11/16 07:17:07;;;;;;;11.85;4.90;;;15.70;99.90;;;;;;5113381;28;20126;-52
2021/11/16 07:19:41;;;;;;;8.27;5.53;;;15.80;99.90;;;;;;5113410;28;20055;-50
2021/11/16 07:22:14;;;;;;;12.68;5.85;;;15.90;99.90;;;;;;5115016;28;20043;-50
2021/11/16 07:24:47;;;;;;;13.55;6.82;;;15.90;99.90;;;;;;5117039;28;20044;-49
2021/11/16 07:27:21;;;;;;;16.50;6.80;;;15.90;99.90;;;;;;5116995;28;20031;-51
2021/11/16 07:29:53;;;;;;;12.55;8.15;;;16.00;99.90;;;;;;5098852;28;20051;-54
2021/11/16 07:32:26;;;;;;;15.55;6.93;;;16.10;99.90;;;;;;5082503;28;20436;-52
2021/11/16 07:34:57;;;;;;;12.82;6.47;;;16.10;99.90;;;;;;5117077;28;20520;-52
2021/11/16 07:37:28;;;;;;;10.60;6.55;;;16.20;99.90;;;;;;5098824;28;20074;-50
2021/11/16 07:40:03;;;;;;;19.38;7.95;;;16.30;99.90;;;;;;5098687;28;20039;-50
2021/11/16 07:42:34;;;;;;;20.20;7.47;;;16.40;99.90;;;;;;5117067;28;20096;-50
2021/11/16 07:45:12;;;;;;;21.08;6.82;;;16.50;99.90;;;;;;5116855;28;20126;-50
2021/11/16 07:47:49;;;;;;;12.80;6.00;;;16.70;99.90;;;;;;5098423;28;20043;-53
2021/11/16 07:50:28;;;;;;;10.05;5.30;;;16.90;99.90;;;;;;5116664;28;20062;-50
2021/11/16 07:53:16;;;;;;;19.70;6.60;;;17.10;99.90;;;;;;5116694;28;20116;-50
2021/11/16 07:56:06;;;;;;;9.52;5.97;;;17.30;99.90;;;;;;5100378;28;20501;-50
2021/11/16 07:58:41;;;;;;;12.18;5.82;;;17.40;99.90;;;;;;5098123;28;20047;-49
2021/11/16 08:09:38;;;;;;;11.95;4.35;;;18.30;99.90;;;;;;5116345;28;20079;-56
2021/11/16 08:15:07;;;;;;;13.80;5.18;;;18.40;99.90;;;;;;5116228;28;20039;-57
2021/11/16 08:17:36;;;;;;;7.57;4.13;;;18.60;99.90;;;;;;5116157;28;20044;-56
2021/11/16 08:20:07;;;;;;;8.85;3.00;;;18.20;99.90;;;;;;5116173;28;20044;-57
2021/11/16 08:22:36;;;;;;;6.25;3.30;;;18.20;99.90;;;;;;5116004;28;20516;-56
2021/11/16 08:25:05;;;;;;;6.47;3.08;;;18.10;99.90;;;;;;5098035;28;20100;-57
2021/11/16 08:27:36;;;;;;;5.60;2.83;;;18.10;99.90;;;;;;5097816;28;20371;-56
2021/11/16 08:30:12;;;;;;;6.72;3.00;;;18.20;99.90;;;;;;5115797;28;20447;-56
2021/11/16 08:32:42;;;;;;;8.98;2.50;;;18.20;99.90;;;;;;5115336;28;20500;-57
2021/11/16 08:35:13;;;;;;;10.18;3.03;;;18.20;99.90;;;;;;5115843;28;20047;-57
2021/11/16 08:37:44;;;;;;;11.38;5.30;;;18.20;99.90;;;;;;5097819;28;20371;-54
2021/11/16 08:40:16;;;;;;;8.93;3.88;;;18.20;99.90;;;;;;5115753;28;20126;-55
2021/11/16 08:43:13;;;;;;;8.10;4.28;;;18.20;99.90;;;;;;5115594;28;20084;-56
2021/11/16 08:45:48;;;;;;;9.90;3.40;;;18.20;99.90;;;;;;5115737;28;20390;-55
2021/11/16 08:48:23;;;;;;;6.35;3.60;;;18.10;99.90;;;;;;5115674;28;20131;-56
2021/11/16 08:50:59;;;;;;;10.75;2.92;;;18.10;99.90;;;;;;5115471;28;20040;-55
2021/11/16 08:53:33;;;;;;;9.00;3.63;;;18.10;99.90;;;;;;5115186;28;20051;-55
2021/11/16 08:56:07;;;;;;;5.25;3.08;;;18.10;99.90;;;;;;5115592;28;20050;-54
2021/11/16 08:58:34;;;;;;;8.75;4.18;;;18.20;99.90;;;;;;5080330;28;20043;-56
2021/11/16 09:01:06;;;;;;;11.43;4.57;;;18.20;99.90;;;;;;5097464;28;20498;-54
2021/11/16 09:03:39;;;;;;;6.28;2.97;;;18.20;99.90;;;;;;5115058;28;20504;-56
2021/11/16 09:06:19;;;;;;;8.23;4.43;;;18.10;99.90;;;;;;5115393;28;20047;-57
2021/11/16 09:09:02;;;;;;;7.63;3.70;;;18.00;99.90;;;;;;5115387;28;20104;-55
2021/11/16 09:11:30;;;;;;;8.35;5.00;;;18.00;99.90;;;;;;5115196;28;20042;-57
2021/11/16 09:13:58;;;;;;;7.32;4.07;;;18.00;99.90;;;;;;5096821;28;20126;-57
2021/11/16 09:16:30;;;;;;;8.45;5.20;;;17.90;99.90;;;;;;5094056;28;20040;-57
2021/11/16 09:19:00;;;;;;;14.73;5.47;;;17.90;99.90;;;;;;5101679;28;20553;-56
2021/11/16 09:21:38;;;;;;;13.27;6.45;;;17.90;99.90;;;;;;5105004;28;20069;-56
2021/11/16 09:24:12;;;;;;;15.02;6.03;;;17.90;99.90;;;;;;5094186;28;20118;-57
2021/11/16 09:29:21;;;;;;;10.20;5.82;;;17.90;99.90;;;;;;5095830;28;20157;-56
2021/11/16 09:31:56;;;;;;;10.52;6.43;;;18.00;99.90;;;;;;5107805;28;20040;-56
2021/11/16 09:34:31;;;;;;;11.68;6.78;;;17.90;99.90;;;;;;5111127;28;20149;-57
2021/11/16 09:37:01;;;;;;;10.52;7.10;;;17.90;99.90;;;;;;5108889;28;20035;-55
2021/11/16 09:39:32;;;;;;;11.90;6.60;;;17.80;99.90;;;;;;5105796;28;20101;-52
2021/11/16 09:42:03;;;;;;;13.00;7.60;;;17.80;99.90;;;;;;5106150;28;20051;-55
2021/11/16 09:44:42;;;;;;;14.32;7.38;;;17.80;99.90;;;;;;5097153;28;20090;-56
2021/11/16 09:47:15;;;;;;;14.45;6.80;;;17.80;99.90;;;;;;5093372;28;20402;-55
2021/11/16 09:49:52;;;;;;;15.48;8.80;;;17.80;99.90;;;;;;5107894;28;20036;-54
2021/11/16 09:52:31;;;;;;;17.98;7.63;;;17.70;99.90;;;;;;5110495;28;20509;-56
2021/11/16 09:55:08;;;;;;;16.23;8.32;;;17.70;99.90;;;;;;5109427;28;20047;-57
2021/11/16 09:58:00;;;;;;;11.85;8.43;;;17.70;99.90;;;;;;5113620;28;20081;-56
2021/11/16 10:00:29;;;;;;;16.05;10.32;;;17.70;99.90;;;;;;5105334;28;20040;-55
2021/11/16 10:03:00;;;;;;;19.40;7.75;;;17.70;99.90;;;;;;5094410;28;20046;-56
2021/11/16 10:05:39;;;;;;;13.25;7.47;;;17.70;99.90;;;;;;5112101;28;20035;-59
2021/11/16 10:08:09;;;;;;;14.35;9.60;;;17.70;99.90;;;;;;5113859;28;20116;-56
2021/11/16 10:10:39;;;;;;;12.57;7.82;;;17.70;99.90;;;;;;5114282;28;20062;-57
2021/11/16 10:13:13;;;;;;;11.27;7.15;;;17.80;99.90;;;;;;5114136;28;20069;-54
2021/11/16 10:15:51;;;;;;;11.88;7.88;;;17.80;99.90;;;;;;5114239;28;20032;-56
2021/11/16 10:18:21;;;;;;;13.50;9.43;;;17.80;99.90;;;;;;5114084;28;20097;-56
2021/11/16 10:20:49;;;;;;;14.52;9.55;;;17.80;99.90;;;;;;5113862;28;20035;-56
2021/11/16 10:23:33;;;;;;;14.75;9.50;;;17.80;99.90;;;;;;5113855;28;20051;-61
2021/11/16 10:26:02;;;;;;;12.23;7.65;;;17.70;99.90;;;;;;5113985;28;20052;-60
2021/11/16 10:28:34;;;;;;;14.30;7.80;;;17.70;99.90;;;;;;5079196;28;20044;-59
2021/11/16 10:31:04;;;;;;;12.73;8.88;;;17.70;99.90;;;;;;5096013;28;20139;-60
2021/11/16 10:33:37;;;;;;;14.77;8.80;;;17.70;99.90;;;;;;5113235;28;20047;-60
2021/11/16 10:36:13;;;;;;;14.88;8.20;;;17.80;99.90;;;;;;5095422;28;20113;-60
2021/11/16 10:38:55;;;;;;;20.17;9.93;;;17.80;99.90;;;;;;5113857;28;20482;-59
2021/11/16 10:41:32;;;;;;;13.88;9.20;;;17.70;99.90;;;;;;5113683;28;20084;-60
2021/11/16 10:44:11;;;;;;;14.40;9.15;;;17.70;99.90;;;;;;5113712;28;20040;-59
2021/11/16 10:46:42;;;;;;;13.40;8.43;;;17.60;99.90;;;;;;5095162;28;20044;-60
2021/11/16 10:49:14;;;;;;;13.10;8.75;;;17.60;99.90;;;;;;5095178;28;20075;-60
2021/11/16 10:51:48;;;;;;;16.05;9.35;;;17.60;99.90;;;;;;5096285;28;20482;-60
2021/11/16 10:54:16;;;;;;;17.40;10.38;;;17.60;99.90;;;;;;5113845;28;20051;-59
2021/11/16 10:56:45;;;;;;;15.15;8.43;;;17.60;99.90;;;;;;5114732;28;20040;-60
2021/11/16 10:59:19;;;;;;;12.15;8.88;;;17.50;99.90;;;;;;5117554;28;20123;-60
2021/11/16 11:01:54;;;;;;;14.52;9.48;;;17.50;99.90;;;;;;5099736;28;20081;-60
2021/11/16 11:04:32;;;;;;;17.45;9.63;;;17.60;99.90;;;;;;5117594;28;20044;-60
2021/11/16 11:07:18;;;;;;;20.48;8.57;;;17.60;99.90;;;;;;5099577;28;20047;-60
2021/11/16 11:09:56;;;;;;;19.07;10.07;;;17.50;99.90;;;;;;5082195;28;20711;-60
2021/11/16 11:12:24;;;;;;;15.18;11.50;;;17.50;99.90;;;;;;5099003;28;20390;-59
2021/11/16 11:14:55;;;;;;;18.15;11.98;;;17.50;99.90;;;;;;5117117;28;20097;-59
2021/11/16 11:17:36;;;;;;;14.77;9.35;;;17.50;99.90;;;;;;5098906;28;20155;-60
2021/11/16 11:20:13;;;;;;;18.90;9.57;;;17.50;99.90;;;;;;5099237;28;20043;-60
2021/11/16 11:22:43;;;;;;;11.00;7.72;;;17.50;99.90;;;;;;5099292;28;20054;-60
2021/11/16 11:27:58;;;;;;;10.98;7.80;;;17.50;99.90;;;;;;5117174;28;20123;-60
2021/11/16 11:30:26;;;;;;;17.38;6.55;;;17.40;99.90;;;;;;5117294;28;20088;-59
2021/11/16 11:32:54;;;;;;;17.00;8.95;;;17.40;99.90;;;;;;5116887;28;20043;-60
2021/11/16 11:35:25;;;;;;;24.75;8.82;;;17.30;99.90;;;;;;5117041;28;20134;-60
2021/11/16 11:38:10;;;;;;;15.00;7.55;;;17.20;99.90;;;;;;5098926;28;20093;-60
2021/11/16 11:40:40;;;;;;;10.57;6.45;;;16.90;99.90;;;;;;5098803;28;20047;-59
2021/11/16 11:43:18;;;;;;;10.68;6.80;;;16.80;99.90;;;;;;5098695;28;20044;-60
2021/11/16 11:45:47;;;;;;;8.70;6.22;;;16.70;99.90;;;;;;5116909;28;20043;-59
2021/11/16 11:48:22;;;;;;;14.05;6.60;;;16.60;99.90;;;;;;5098546;28;20036;-60
2021/11/16 11:51:11;;;;;;;11.52;6.70;;;16.50;99.90;;;;;;5098363;28;20031;-60
2021/11/16 11:53:41;;;;;;;18.75;7.82;;;16.40;99.90;;;;;;5091731;28;20055;-59
2021/11/16 11:56:13;;;;;;;12.55;7.47;;;16.30;99.90;;;;;;5098710;28;20043;-60
2021/11/16 11:58:43;;;;;;;12.85;6.38;;;16.20;99.90;;;;;;5098207;28;20075;-60
2021/11/16 12:01:14;;;;;;;13.50;9.60;;;16.10;99.90;;;;;;5116399;28;20043;-59
2021/11/16 12:03:45;;;;;;;18.10;11.48;;;16.10;99.90;;;;;;5116440;28;20464;-59
2021/11/16 12:06:13;;;;;;;15.18;10.48;;;16.20;99.90;;;;;;5098257;28;20087;-60
2021/11/16 12:08:40;;;;;;;13.70;8.75;;;16.10;99.90;;;;;;5081213;28;20048;-60
2021/11/16 12:11:08;;;;;;;13.38;8.45;;;16.10;99.90;;;;;;5116527;28;20032;-60
2021/11/16 12:13:38;;;;;;;12.38;8.57;;;16.20;99.90;;;;;;5116303;28;20039;-60
2021/11/16 12:16:20;;;;;;;12.43;6.88;;;16.10;99.90;;;;;;5098155;28;20401;-60
2021/11/16 12:18:50;;;;;;;13.15;7.05;;;16.10;99.90;;;;;;5116107;28;20108;-60
2021/11/16 12:21:32;;;;;;;15.20;7.95;;;15.90;99.90;;;;;;5116047;28;20505;-60
2021/11/16 12:24:02;;;;;;;22.67;11.13;;;15.80;99.90;;;;;;5116225;28;20047;-59
2021/11/16 12:26:36;;;;;;;17.20;9.07;;;15.80;99.90;;;;;;5097998;28;20032;-59
2021/11/16 12:29:19;;;;;;;15.05;8.65;;;15.80;99.90;;;;;;5115849;28;20104;-60
2021/11/16 12:31:49;;;;;;;16.08;8.40;;;15.80;99.90;;;;;;5080787;28;20047;-60
2021/11/16 12:34:38;;;;;;;15.00;8.80;;;15.80;99.90;;;;;;5097531;28;20498;-60
2021/11/16 12:37:08;;;;;;;13.65;8.45;;;15.80;99.90;;;;;;5115918;28;20061;-59
2021/11/16 12:39:54;;;;;;;18.20;9.27;;;15.80;99.90;;;;;;5097859;28;20047;-59
2021/11/16 12:42:22;;;;;;;15.63;9.27;;;15.80;99.90;;;;;;5115806;28;20043;-59
2021/11/16 12:44:59;;;;;;;16.20;9.85;;;15.80;99.90;;;;;;5097484;28;20079;-60
2021/11/16 12:47:31;;;;;;;10.90;7.70;;;15.80;99.90;;;;;;5098029;28;20403;-60
2021/11/16 12:50:11;;;;;;;14.38;8.60;;;15.90;99.90;;;;;;5080226;28;20138;-59
2021/11/16 12:52:48;;;;;;;12.00;8.35;;;16.00;99.90;;;;;;5115517;28;20082;-60
2021/11/16 12:55:21;;;;;;;14.65;8.50;;;16.00;99.90;;;;;;5097768;28;20474;-60
2021/11/16 12:57:50;;;;;;;10.73;7.30;;;16.10;99.90;;;;;;5097231;28;20047;-60
2021/11/16 13:00:37;;;;;;;14.43;9.00;;;16.10;99.90;;;;;;5097184;28;20096;-60
2021/11/16 13:03:06;;;;;;;13.32;7.50;;;16.20;99.90;;;;;;5115129;28;20567;-60
2021/11/16 13:05:42;;;;;;;13.40;7.53;;;16.20;99.90;;;;;;5097524;28;20098;-59
2021/11/16 13:08:12;;;;;;;15.65;7.60;;;16.20;99.90;;;;;;5115295;28;20039;-60
2021/11/16 13:10:54;;;;;;;14.23;6.82;;;16.20;99.90;;;;;;5097086;28;20086;-60
2021/11/16 13:13:23;;;;;;;12.02;7.00;;;16.20;99.90;;;;;;5114959;28;20040;-60
2021/11/16 13:16:00;;;;;;;17.27;9.15;;;16.30;99.90;;;;;;5097083;28;20035;-59
2021/11/16 13:18:32;;;;;;;10.82;6.50;;;16.20;99.90;;;;;;5114793;28;20048;-60
2021/11/16 13:21:09;;;;;;;14.07;7.40;;;16.30;99.90;;;;;;5096370;28;20118;-59
2021/11/16 13:23:50;;;;;;;19.25;7.35;;;16.30;99.90;;;;;;5080159;28;20051;-60
2021/11/16 13:26:37;;;;;;;13.02;8.57;;;16.30;99.90;;;;;;5096484;28;20389;-59
2021/11/16 13:29:22;;;;;;;13.82;8.23;;;16.40;99.90;;;;;;5079478;28;20055;-60
2021/11/16 13:31:53;;;;;;;12.65;6.43;;;16.40;99.90;;;;;;5079248;28;20048;-60
2021/11/16 13:34:34;;;;;;;11.13;7.70;;;16.30;99.90;;;;;;5114452;28;20490;-59